sensor_id;sensor_type;location;lat;lon;timestamp;pressure;altitude;pressure_sealevel;temperature;humidity
72570;BME280;60594;50.204;8.844;2022-07-03T00:02:14;100109.28;;;18.67;58.73
72570;BME280;60594;50.204;8.844;2022-07-03T00:04:40;100098.66;;;18.66;58.58
72570;BME280;60594;50.204;8.844;2022-07-03T00:07:07;100119.44;;;18.57;59.03
72570;BME280;60594;50.204;8.844;2022-07-03T00:09:34;100113.91;;;18.51;59.86
72570;BME280;60594;50.204;8.844;2022-07-03T00:12:00;100112.56;;;18.47;59.85
72570;BME280;60594;50.204;8.844;2022-07-03T00:14:26;100112.28;;;18.42;60.57
72570;BME280;60594;50.204;8.844;2022-07-03T00:16:53;100109.22;;;18.45;59.98
72570;BME280;60594;50.204;8.844;2022-07-03T00:19:19;100111.28;;;18.35;60.68
72570;BME280;60594;50.204;8.844;2022-07-03T00:21:52;100117.03;;;18.24;61.29
72570;BME280;60594;50.204;8.844;2022-07-03T00:24:23;100109.31;;;18.13;61.41
72570;BME280;60594;50.204;8.844;2022-07-03T00:26:51;100111.34;;;18.03;61.53
72570;BME280;60594;50.204;8.844;2022-07-03T00:29:20;100108.34;;;17.98;61.90
72570;BME280;60594;50.204;8.844;2022-07-03T00:31:48;100107.81;;;17.94;62.22
72570;BME280;60594;50.204;8.844;2022-07-03T00:34:16;100110.88;;;17.91;62.40
72570;BME280;60594;50.204;8.844;2022-07-03T00:36:45;100104.13;;;17.87;62.80
72570;BME280;60594;50.204;8.844;2022-07-03T00:39:12;100112.03;;;17.89;63.57
72570;BME280;60594;50.204;8.844;2022-07-03T00:41:38;100099.91;;;17.85;64.09
72570;BME280;60594;50.204;8.844;2022-07-03T00:44:04;100108.00;;;17.85;64.16
72570;BME280;60594;50.204;8.844;2022-07-03T00:46:31;100111.56;;;17.85;64.16
72570;BME280;60594;50.204;8.844;2022-07-03T00:48:58;100106.00;;;17.71;64.10
72570;BME280;60594;50.204;8.844;2022-07-03T00:51:27;100093.38;;;17.63;64.24
72570;BME280;60594;50.204;8.844;2022-07-03T00:53:58;100099.97;;;17.53;63.75
72570;BME280;60594;50.204;8.844;2022-07-03T00:56:27;100103.50;;;17.45;64.61
72570;BME280;60594;50.204;8.844;2022-07-03T00:58:56;100094.88;;;17.34;64.85
72570;BME280;60594;50.204;8.844;2022-07-03T01:01:26;100099.78;;;17.38;64.73
72570;BME280;60594;50.204;8.844;2022-07-03T01:06:54;100110.59;;;17.54;65.31
72570;BME280;60594;50.204;8.844;2022-07-03T01:12:54;100088.50;;;17.59;63.51
72570;BME280;60594;50.204;8.844;2022-07-03T01:18:17;100078.41;;;17.53;63.62
72570;BME280;60594;50.204;8.844;2022-07-03T01:20:53;100079.09;;;17.47;64.23
72570;BME280;60594;50.204;8.844;2022-07-03T01:26:09;100082.09;;;17.36;63.78
72570;BME280;60594;50.204;8.844;2022-07-03T01:28:41;100079.72;;;17.33;63.49
72570;BME280;60594;50.204;8.844;2022-07-03T01:31:10;100072.16;;;17.28;63.36
72570;BME280;60594;50.204;8.844;2022-07-03T01:33:39;100073.69;;;17.31;62.87
72570;BME280;60594;50.204;8.844;2022-07-03T01:36:08;100071.31;;;17.36;62.42
72570;BME280;60594;50.204;8.844;2022-07-03T01:38:37;100068.66;;;17.44;62.11
72570;BME280;60594;50.204;8.844;2022-07-03T01:41:06;100068.78;;;17.50;61.86
72570;BME280;60594;50.204;8.844;2022-07-03T01:43:36;100073.19;;;17.59;62.55
72570;BME280;60594;50.204;8.844;2022-07-03T01:46:03;100075.38;;;17.64;62.33
72570;BME280;60594;50.204;8.844;2022-07-03T01:48:32;100067.75;;;17.35;62.81
72570;BME280;60594;50.204;8.844;2022-07-03T01:50:59;100069.44;;;17.28;64.39
72570;BME280;60594;50.204;8.844;2022-07-03T01:53:29;100076.03;;;17.26;64.29
72570;BME280;60594;50.204;8.844;2022-07-03T01:55:58;100063.91;;;17.38;64.69
72570;BME280;60594;50.204;8.844;2022-07-03T01:58:25;100058.19;;;17.33;64.24
72570;BME280;60594;50.204;8.844;2022-07-03T02:01:06;100063.06;;;17.37;64.57
72570;BME280;60594;50.204;8.844;2022-07-03T02:03:35;100055.47;;;17.41;64.50
72570;BME280;60594;50.204;8.844;2022-07-03T02:06:39;100060.72;;;17.34;64.91
72570;BME280;60594;50.204;8.844;2022-07-03T02:09:09;100065.09;;;17.27;64.85
72570;BME280;60594;50.204;8.844;2022-07-03T02:11:38;100055.13;;;17.12;65.39
72570;BME280;60594;50.204;8.844;2022-07-03T02:14:14;100055.78;;;16.81;66.06
72570;BME280;60594;50.204;8.844;2022-07-03T02:17:03;100051.44;;;16.88;67.52
72570;BME280;60594;50.204;8.844;2022-07-03T02:19:52;100054.97;;;16.89;67.17
72570;BME280;60594;50.204;8.844;2022-07-03T02:22:40;100048.75;;;16.97;66.91
72570;BME280;60594;50.204;8.844;2022-07-03T02:25:21;100048.75;;;16.88;66.70
72570;BME280;60594;50.204;8.844;2022-07-03T02:30:42;100037.09;;;16.72;67.38
72570;BME280;60594;50.204;8.844;2022-07-03T02:33:11;100031.06;;;16.70;66.90
72570;BME280;60594;50.204;8.844;2022-07-03T02:35:37;100046.19;;;16.71;66.72
72570;BME280;60594;50.204;8.844;2022-07-03T02:38:10;100047.38;;;16.68;67.29
72570;BME280;60594;50.204;8.844;2022-07-03T02:40:46;100053.88;;;16.50;67.80
72570;BME280;60594;50.204;8.844;2022-07-03T02:43:38;100050.00;;;16.44;68.36
72570;BME280;60594;50.204;8.844;2022-07-03T02:46:12;100053.47;;;16.29;69.23
72570;BME280;60594;50.204;8.844;2022-07-03T02:49:22;100050.41;;;16.24;69.01
72570;BME280;60594;50.204;8.844;2022-07-03T02:52:13;100051.81;;;15.43;72.82
72570;BME280;60594;50.204;8.844;2022-07-03T02:54:45;100065.63;;;15.31;73.58
72570;BME280;60594;50.204;8.844;2022-07-03T02:57:14;100062.22;;;15.29;73.31
72570;BME280;60594;50.204;8.844;2022-07-03T03:00:00;100076.28;;;15.66;71.90
72570;BME280;60594;50.204;8.844;2022-07-03T03:08:17;100080.16;;;15.63;72.03
72570;BME280;60594;50.204;8.844;2022-07-03T03:10:51;100071.09;;;15.64;72.08
72570;BME280;60594;50.204;8.844;2022-07-03T03:13:21;100086.63;;;15.18;73.98
72570;BME280;60594;50.204;8.844;2022-07-03T03:16:01;100085.34;;;15.04;74.63
72570;BME280;60594;50.204;8.844;2022-07-03T03:18:30;100081.25;;;15.18;74.21
72570;BME280;60594;50.204;8.844;2022-07-03T03:20:59;100088.78;;;15.32;74.22
72570;BME280;60594;50.204;8.844;2022-07-03T03:26:10;100077.69;;;15.09;74.16
72570;BME280;60594;50.204;8.844;2022-07-03T03:28:36;100087.81;;;14.80;75.69
72570;BME280;60594;50.204;8.844;2022-07-03T03:31:03;100083.75;;;14.94;75.30
72570;BME280;60594;50.204;8.844;2022-07-03T03:33:41;100077.22;;;15.14;74.17
72570;BME280;60594;50.204;8.844;2022-07-03T03:36:09;100076.09;;;15.16;74.37
72570;BME280;60594;50.204;8.844;2022-07-03T03:38:38;100075.91;;;15.18;74.39
72570;BME280;60594;50.204;8.844;2022-07-03T03:41:04;100072.25;;;15.19;74.40
72570;BME280;60594;50.204;8.844;2022-07-03T03:43:31;100088.09;;;15.12;74.62
72570;BME280;60594;50.204;8.844;2022-07-03T03:45:58;100075.22;;;15.16;74.31
72570;BME280;60594;50.204;8.844;2022-07-03T03:48:31;100082.97;;;15.19;74.22
72570;BME280;60594;50.204;8.844;2022-07-03T03:50:59;100096.56;;;15.17;74.23
72570;BME280;60594;50.204;8.844;2022-07-03T03:53:26;100096.91;;;15.22;75.12
72570;BME280;60594;50.204;8.844;2022-07-03T03:56:13;100101.91;;;15.17;74.51
72570;BME280;60594;50.204;8.844;2022-07-03T03:58:43;100096.00;;;15.31;74.52
72570;BME280;60594;50.204;8.844;2022-07-03T04:01:10;100099.81;;;15.29;74.99
72570;BME280;60594;50.204;8.844;2022-07-03T04:03:39;100104.47;;;15.36;74.83
72570;BME280;60594;50.204;8.844;2022-07-03T04:06:05;100098.53;;;15.33;74.96
72570;BME280;60594;50.204;8.844;2022-07-03T04:08:31;100100.81;;;15.28;75.39
72570;BME280;60594;50.204;8.844;2022-07-03T04:10:58;100102.84;;;15.26;75.21
72570;BME280;60594;50.204;8.844;2022-07-03T04:13:24;100102.19;;;15.32;75.79
72570;BME280;60594;50.204;8.844;2022-07-03T04:15:52;100102.19;;;15.32;74.64
72570;BME280;60594;50.204;8.844;2022-07-03T04:18:19;100107.41;;;15.33;75.71
72570;BME280;60594;50.204;8.844;2022-07-03T04:20:45;100107.88;;;15.29;76.78
72570;BME280;60594;50.204;8.844;2022-07-03T04:23:12;100112.72;;;15.25;76.24
72570;BME280;60594;50.204;8.844;2022-07-03T04:25:38;100107.50;;;15.24;75.91
72570;BME280;60594;50.204;8.844;2022-07-03T04:28:04;100100.00;;;15.27;75.54
72570;BME280;60594;50.204;8.844;2022-07-03T04:30:31;100115.25;;;15.27;75.78
72570;BME280;60594;50.204;8.844;2022-07-03T04:32:57;100114.34;;;15.18;75.41
72570;BME280;60594;50.204;8.844;2022-07-03T04:35:23;100107.56;;;15.32;75.51
72570;BME280;60594;50.204;8.844;2022-07-03T04:37:50;100112.13;;;15.31;75.50
72570;BME280;60594;50.204;8.844;2022-07-03T04:40:16;100104.31;;;15.38;76.10
72570;BME280;60594;50.204;8.844;2022-07-03T04:42:42;100107.22;;;15.44;75.99
72570;BME280;60594;50.204;8.844;2022-07-03T04:45:09;100097.69;;;15.50;76.98
72570;BME280;60594;50.204;8.844;2022-07-03T04:47:35;100111.81;;;15.52;78.07
72570;BME280;60594;50.204;8.844;2022-07-03T04:50:01;100105.78;;;15.58;77.86
72570;BME280;60594;50.204;8.844;2022-07-03T04:52:28;100101.06;;;15.52;77.33
72570;BME280;60594;50.204;8.844;2022-07-03T04:54:54;100115.56;;;15.59;77.38
72570;BME280;60594;50.204;8.844;2022-07-03T04:57:20;100115.97;;;15.46;76.20
72570;BME280;60594;50.204;8.844;2022-07-03T04:59:46;100115.63;;;15.49;77.58
72570;BME280;60594;50.204;8.844;2022-07-03T05:02:13;100117.69;;;15.55;77.78
72570;BME280;60594;50.204;8.844;2022-07-03T05:04:39;100121.59;;;15.61;77.63
72570;BME280;60594;50.204;8.844;2022-07-03T05:07:05;100118.91;;;15.61;77.26
72570;BME280;60594;50.204;8.844;2022-07-03T05:09:31;100123.13;;;15.63;76.55
72570;BME280;60594;50.204;8.844;2022-07-03T05:11:58;100114.56;;;15.60;76.64
72570;BME280;60594;50.204;8.844;2022-07-03T05:14:24;100113.03;;;15.57;75.74
72570;BME280;60594;50.204;8.844;2022-07-03T05:16:50;100119.97;;;15.68;75.43
72570;BME280;60594;50.204;8.844;2022-07-03T05:19:17;100119.03;;;15.77;74.74
72570;BME280;60594;50.204;8.844;2022-07-03T05:21:43;100130.47;;;15.79;74.32
72570;BME280;60594;50.204;8.844;2022-07-03T05:24:09;100134.25;;;15.94;75.42
72570;BME280;60594;50.204;8.844;2022-07-03T05:26:35;100132.38;;;15.86;73.52
72570;BME280;60594;50.204;8.844;2022-07-03T05:29:02;100125.34;;;15.93;73.57
72570;BME280;60594;50.204;8.844;2022-07-03T05:31:28;100126.81;;;16.13;73.87
72570;BME280;60594;50.204;8.844;2022-07-03T05:33:54;100123.84;;;16.24;73.24
72570;BME280;60594;50.204;8.844;2022-07-03T05:36:20;100125.78;;;16.40;73.45
72570;BME280;60594;50.204;8.844;2022-07-03T05:38:47;100124.09;;;16.39;73.09
72570;BME280;60594;50.204;8.844;2022-07-03T05:41:32;100132.56;;;16.44;71.82
72570;BME280;60594;50.204;8.844;2022-07-03T05:43:58;100128.03;;;16.52;72.18
72570;BME280;60594;50.204;8.844;2022-07-03T05:46:24;100133.41;;;16.52;71.13
72570;BME280;60594;50.204;8.844;2022-07-03T05:48:50;100133.63;;;16.59;70.86
72570;BME280;60594;50.204;8.844;2022-07-03T05:51:17;100136.50;;;16.65;71.25
72570;BME280;60594;50.204;8.844;2022-07-03T05:53:43;100134.16;;;16.70;70.67
72570;BME280;60594;50.204;8.844;2022-07-03T05:56:09;100130.84;;;16.84;70.29
72570;BME280;60594;50.204;8.844;2022-07-03T05:58:36;100139.94;;;16.92;69.78
72570;BME280;60594;50.204;8.844;2022-07-03T06:01:02;100141.13;;;16.97;69.68
72570;BME280;60594;50.204;8.844;2022-07-03T06:03:28;100143.34;;;17.02;69.99
72570;BME280;60594;50.204;8.844;2022-07-03T06:05:54;100136.13;;;17.10;70.18
72570;BME280;60594;50.204;8.844;2022-07-03T06:08:20;100142.69;;;17.16;70.32
72570;BME280;60594;50.204;8.844;2022-07-03T06:10:47;100138.66;;;17.20;70.27
72570;BME280;60594;50.204;8.844;2022-07-03T06:13:13;100137.81;;;17.35;70.14
72570;BME280;60594;50.204;8.844;2022-07-03T06:15:39;100130.44;;;17.45;69.36
72570;BME280;60594;50.204;8.844;2022-07-03T06:18:06;100135.16;;;17.67;68.85
72570;BME280;60594;50.204;8.844;2022-07-03T06:20:32;100130.78;;;17.74;68.57
72570;BME280;60594;50.204;8.844;2022-07-03T06:22:58;100139.34;;;17.94;68.07
72570;BME280;60594;50.204;8.844;2022-07-03T06:25:24;100136.81;;;18.00;68.27
72570;BME280;60594;50.204;8.844;2022-07-03T06:27:51;100130.00;;;18.20;67.84
72570;BME280;60594;50.204;8.844;2022-07-03T06:30:17;100132.69;;;18.28;67.32
72570;BME280;60594;50.204;8.844;2022-07-03T06:32:43;100140.06;;;18.42;67.71
72570;BME280;60594;50.204;8.844;2022-07-03T06:35:09;100145.41;;;18.66;66.12
72570;BME280;60594;50.204;8.844;2022-07-03T06:37:36;100139.09;;;19.04;63.87
72570;BME280;60594;50.204;8.844;2022-07-03T06:40:02;100153.06;;;19.16;63.59
72570;BME280;60594;50.204;8.844;2022-07-03T06:42:29;100143.56;;;19.20;63.41
72570;BME280;60594;50.204;8.844;2022-07-03T06:44:57;100140.38;;;19.24;63.44
72570;BME280;60594;50.204;8.844;2022-07-03T06:47:23;100137.50;;;19.26;62.99
72570;BME280;60594;50.204;8.844;2022-07-03T06:49:49;100132.03;;;19.34;62.80
72570;BME280;60594;50.204;8.844;2022-07-03T06:52:16;100137.53;;;19.40;63.38
72570;BME280;60594;50.204;8.844;2022-07-03T06:54:42;100127.06;;;19.60;62.30
72570;BME280;60594;50.204;8.844;2022-07-03T06:57:11;100128.66;;;19.69;61.88
72570;BME280;60594;50.204;8.844;2022-07-03T06:59:37;100126.47;;;19.87;62.19
72570;BME280;60594;50.204;8.844;2022-07-03T07:02:03;100122.19;;;19.92;60.77
72570;BME280;60594;50.204;8.844;2022-07-03T07:04:30;100118.56;;;20.00;60.65
72570;BME280;60594;50.204;8.844;2022-07-03T07:06:56;100129.31;;;20.08;61.09
72570;BME280;60594;50.204;8.844;2022-07-03T07:09:22;100124.59;;;20.25;61.09
72570;BME280;60594;50.204;8.844;2022-07-03T07:11:48;100130.38;;;20.51;59.25
72570;BME280;60594;50.204;8.844;2022-07-03T07:14:15;100133.44;;;20.62;58.45
72570;BME280;60594;50.204;8.844;2022-07-03T07:16:41;100129.69;;;20.78;57.37
72570;BME280;60594;50.204;8.844;2022-07-03T07:19:07;100128.38;;;20.88;56.72
72570;BME280;60594;50.204;8.844;2022-07-03T07:21:33;100137.50;;;21.02;55.97
72570;BME280;60594;50.204;8.844;2022-07-03T07:24:00;100137.53;;;21.23;55.71
72570;BME280;60594;50.204;8.844;2022-07-03T07:26:26;100129.81;;;21.20;55.24
72570;BME280;60594;50.204;8.844;2022-07-03T07:28:52;100126.16;;;21.34;55.06
72570;BME280;60594;50.204;8.844;2022-07-03T07:31:19;100129.06;;;21.32;55.03
72570;BME280;60594;50.204;8.844;2022-07-03T07:33:45;100120.41;;;21.43;55.77
72570;BME280;60594;50.204;8.844;2022-07-03T07:36:11;100129.06;;;21.53;55.45
72570;BME280;60594;50.204;8.844;2022-07-03T07:38:38;100137.69;;;21.57;55.28
72570;BME280;60594;50.204;8.844;2022-07-03T07:41:04;100120.34;;;21.58;55.57
72570;BME280;60594;50.204;8.844;2022-07-03T07:43:30;100128.59;;;21.71;55.43
72570;BME280;60594;50.204;8.844;2022-07-03T07:45:57;100128.75;;;21.84;54.33
72570;BME280;60594;50.204;8.844;2022-07-03T07:48:23;100124.41;;;21.89;52.88
72570;BME280;60594;50.204;8.844;2022-07-03T07:50:49;100128.44;;;22.00;53.18
72570;BME280;60594;50.204;8.844;2022-07-03T07:53:16;100130.88;;;22.16;53.14
72570;BME280;60594;50.204;8.844;2022-07-03T07:55:43;100134.06;;;22.26;52.82
72570;BME280;60594;50.204;8.844;2022-07-03T07:58:09;100128.69;;;22.32;51.76
72570;BME280;60594;50.204;8.844;2022-07-03T08:00:35;100128.13;;;22.43;52.53
72570;BME280;60594;50.204;8.844;2022-07-03T08:03:02;100133.22;;;22.53;51.18
72570;BME280;60594;50.204;8.844;2022-07-03T08:05:47;100133.28;;;22.66;50.58
72570;BME280;60594;50.204;8.844;2022-07-03T08:08:17;100128.34;;;22.89;49.71
72570;BME280;60594;50.204;8.844;2022-07-03T08:13:12;100129.06;;;23.11;49.26
72570;BME280;60594;50.204;8.844;2022-07-03T08:15:40;100132.25;;;23.21;49.58
72570;BME280;60594;50.204;8.844;2022-07-03T08:18:07;100123.50;;;23.32;49.70
72570;BME280;60594;50.204;8.844;2022-07-03T08:20:34;100129.00;;;23.58;49.06
72570;BME280;60594;50.204;8.844;2022-07-03T08:23:00;100121.44;;;23.60;49.18
72570;BME280;60594;50.204;8.844;2022-07-03T08:25:26;100124.78;;;23.68;47.09
72570;BME280;60594;50.204;8.844;2022-07-03T08:27:53;100126.91;;;23.73;47.24
72570;BME280;60594;50.204;8.844;2022-07-03T08:30:19;100117.88;;;23.72;47.08
72570;BME280;60594;50.204;8.844;2022-07-03T08:32:47;100122.06;;;23.68;47.05
72570;BME280;60594;50.204;8.844;2022-07-03T08:35:14;100111.78;;;23.70;48.03
72570;BME280;60594;50.204;8.844;2022-07-03T08:37:41;100114.13;;;23.86;46.38
72570;BME280;60594;50.204;8.844;2022-07-03T08:40:09;100120.41;;;23.74;47.69
72570;BME280;60594;50.204;8.844;2022-07-03T08:42:37;100122.28;;;23.73;46.36
72570;BME280;60594;50.204;8.844;2022-07-03T08:45:07;100113.06;;;23.68;47.72
72570;BME280;60594;50.204;8.844;2022-07-03T08:47:37;100111.00;;;23.96;47.71
72570;BME280;60594;50.204;8.844;2022-07-03T08:50:05;100107.81;;;24.18;46.71
72570;BME280;60594;50.204;8.844;2022-07-03T08:52:33;100111.16;;;24.33;46.62
72570;BME280;60594;50.204;8.844;2022-07-03T08:55:01;100106.09;;;24.37;46.66
72570;BME280;60594;50.204;8.844;2022-07-03T08:57:30;100111.56;;;24.37;47.22
72570;BME280;60594;50.204;8.844;2022-07-03T09:00:00;100109.84;;;24.55;45.64
72570;BME280;60594;50.204;8.844;2022-07-03T09:02:28;100098.75;;;24.44;46.07
72570;BME280;60594;50.204;8.844;2022-07-03T09:04:55;100101.19;;;24.71;44.91
72570;BME280;60594;50.204;8.844;2022-07-03T09:07:24;100107.47;;;24.78;45.12
72570;BME280;60594;50.204;8.844;2022-07-03T09:09:52;100108.88;;;24.87;45.12
72570;BME280;60594;50.204;8.844;2022-07-03T09:12:19;100105.28;;;24.93;43.36
72570;BME280;60594;50.204;8.844;2022-07-03T09:14:45;100109.56;;;24.83;43.43
72570;BME280;60594;50.204;8.844;2022-07-03T09:17:12;100105.25;;;25.00;43.34
72570;BME280;60594;50.204;8.844;2022-07-03T09:19:46;100109.06;;;25.36;42.75
72570;BME280;60594;50.204;8.844;2022-07-03T09:22:19;100110.03;;;25.48;43.08
72570;BME280;60594;50.204;8.844;2022-07-03T09:24:49;100109.44;;;25.40;41.63
72570;BME280;60594;50.204;8.844;2022-07-03T09:27:20;100113.06;;;25.27;42.15
72570;BME280;60594;50.204;8.844;2022-07-03T09:30:11;100101.91;;;25.66;41.96
72570;BME280;60594;50.204;8.844;2022-07-03T09:35:20;100104.56;;;26.40;40.57
72570;BME280;60594;50.204;8.844;2022-07-03T09:37:49;100105.69;;;26.75;39.07
72570;BME280;60594;50.204;8.844;2022-07-03T09:40:17;100110.47;;;27.09;36.98
72570;BME280;60594;50.204;8.844;2022-07-03T09:45:27;100109.38;;;27.58;35.80
72570;BME280;60594;50.204;8.844;2022-07-03T09:47:56;100104.44;;;27.48;35.96
72570;BME280;60594;50.204;8.844;2022-07-03T09:50:23;100096.38;;;27.65;35.86
72570;BME280;60594;50.204;8.844;2022-07-03T09:52:50;100101.75;;;27.60;36.41
72570;BME280;60594;50.204;8.844;2022-07-03T09:55:18;100093.63;;;27.65;34.86
72570;BME280;60594;50.204;8.844;2022-07-03T10:00:26;100102.59;;;27.60;34.05
72570;BME280;60594;50.204;8.844;2022-07-03T10:03:09;100095.47;;;27.82;34.02
72570;BME280;60594;50.204;8.844;2022-07-03T10:05:37;100086.16;;;27.60;33.13
72570;BME280;60594;50.204;8.844;2022-07-03T10:10:38;100094.69;;;27.93;34.13
72570;BME280;60594;50.204;8.844;2022-07-03T10:13:04;100084.88;;;28.09;33.34
72570;BME280;60594;50.204;8.844;2022-07-03T10:15:32;100085.13;;;28.30;34.28
72570;BME280;60594;50.204;8.844;2022-07-03T10:17:59;100083.56;;;28.46;34.08
72570;BME280;60594;50.204;8.844;2022-07-03T10:20:29;100081.75;;;28.63;33.54
72570;BME280;60594;50.204;8.844;2022-07-03T10:22:56;100089.16;;;28.62;34.39
72570;BME280;60594;50.204;8.844;2022-07-03T10:25:23;100084.13;;;28.71;33.28
72570;BME280;60594;50.204;8.844;2022-07-03T10:27:49;100091.47;;;28.82;33.27
72570;BME280;60594;50.204;8.844;2022-07-03T10:30:21;100082.06;;;28.78;31.99
72570;BME280;60594;50.204;8.844;2022-07-03T10:32:53;100078.53;;;28.66;32.35
72570;BME280;60594;50.204;8.844;2022-07-03T10:35:23;100080.34;;;28.60;32.32
72570;BME280;60594;50.204;8.844;2022-07-03T10:41:05;100082.91;;;28.78;32.50
72570;BME280;60594;50.204;8.844;2022-07-03T10:43:52;100082.94;;;28.67;30.96
72570;BME280;60594;50.204;8.844;2022-07-03T10:46:38;100083.09;;;28.60;31.65
72570;BME280;60594;50.204;8.844;2022-07-03T10:49:11;100078.16;;;28.62;31.40
72570;BME280;60594;50.204;8.844;2022-07-03T10:51:56;100090.72;;;28.58;31.33
72570;BME280;60594;50.204;8.844;2022-07-03T10:54:26;100085.28;;;28.86;33.30
72570;BME280;60594;50.204;8.844;2022-07-03T10:57:14;100075.75;;;29.17;31.20
72570;BME280;60594;50.204;8.844;2022-07-03T11:13:01;100071.63;;;29.03;30.95
72570;BME280;60594;50.204;8.844;2022-07-03T11:23:30;100062.13;;;28.20;31.59
72570;BME280;60594;50.204;8.844;2022-07-03T11:39:02;100039.97;;;29.29;28.74
72570;BME280;60594;50.204;8.844;2022-07-03T11:41:31;100034.44;;;29.57;29.35
72570;BME280;60594;50.204;8.844;2022-07-03T11:44:09;100040.34;;;29.49;27.43
72570;BME280;60594;50.204;8.844;2022-07-03T11:46:39;100033.25;;;29.53;27.68
72570;BME280;60594;50.204;8.844;2022-07-03T11:49:10;100037.88;;;29.19;28.50
72570;BME280;60594;50.204;8.844;2022-07-03T11:51:54;100031.75;;;29.45;29.31
72570;BME280;60594;50.204;8.844;2022-07-03T11:54:20;100025.78;;;29.81;28.54
72570;BME280;60594;50.204;8.844;2022-07-03T11:56:48;100031.97;;;29.72;28.47
72570;BME280;60594;50.204;8.844;2022-07-03T11:59:14;100025.13;;;29.74;28.07
72570;BME280;60594;50.204;8.844;2022-07-03T12:01:40;100027.31;;;29.72;29.46
72570;BME280;60594;50.204;8.844;2022-07-03T12:04:27;100029.94;;;29.67;28.40
72570;BME280;60594;50.204;8.844;2022-07-03T12:06:56;100027.63;;;29.76;27.99
72570;BME280;60594;50.204;8.844;2022-07-03T12:09:31;100021.00;;;29.93;27.91
72570;BME280;60594;50.204;8.844;2022-07-03T12:12:11;100016.19;;;29.84;29.12
72570;BME280;60594;50.204;8.844;2022-07-03T12:17:04;100009.03;;;29.50;28.60
72570;BME280;60594;50.204;8.844;2022-07-03T12:19:32;100001.88;;;29.49;28.64
72570;BME280;60594;50.204;8.844;2022-07-03T12:21:59;100013.19;;;29.36;29.57
72570;BME280;60594;50.204;8.844;2022-07-03T12:24:26;100006.91;;;29.07;29.68
72570;BME280;60594;50.204;8.844;2022-07-03T12:26:52;100003.25;;;29.02;28.74
72570;BME280;60594;50.204;8.844;2022-07-03T12:29:19;100011.44;;;29.13;29.80
72570;BME280;60594;50.204;8.844;2022-07-03T12:31:47;100006.22;;;29.28;29.87
72570;BME280;60594;50.204;8.844;2022-07-03T12:34:15;99997.47;;;29.15;30.18
72570;BME280;60594;50.204;8.844;2022-07-03T12:36:59;99994.44;;;29.33;30.31
72570;BME280;60594;50.204;8.844;2022-07-03T12:39:45;100004.78;;;29.09;30.14
72570;BME280;60594;50.204;8.844;2022-07-03T12:42:20;99998.53;;;29.14;28.62
72570;BME280;60594;50.204;8.844;2022-07-03T12:45:02;99979.25;;;29.42;28.94
72570;BME280;60594;50.204;8.844;2022-07-03T12:47:30;99983.81;;;29.53;29.52
72570;BME280;60594;50.204;8.844;2022-07-03T12:50:02;99984.16;;;29.73;26.16
72570;BME280;60594;50.204;8.844;2022-07-03T12:52:31;99985.72;;;30.07;27.70
72570;BME280;60594;50.204;8.844;2022-07-03T12:54:59;99985.81;;;30.12;26.54
72570;BME280;60594;50.204;8.844;2022-07-03T12:57:27;99979.13;;;29.86;26.28
72570;BME280;60594;50.204;8.844;2022-07-03T13:00:12;99969.16;;;29.80;27.82
72570;BME280;60594;50.204;8.844;2022-07-03T13:02:46;99975.19;;;29.99;26.76
72570;BME280;60594;50.204;8.844;2022-07-03T13:05:19;99972.63;;;29.92;26.83
72570;BME280;60594;50.204;8.844;2022-07-03T13:07:47;99978.47;;;29.96;28.40
72570;BME280;60594;50.204;8.844;2022-07-03T13:10:15;99980.81;;;30.25;27.57
72570;BME280;60594;50.204;8.844;2022-07-03T13:12:49;99976.22;;;29.93;25.75
72570;BME280;60594;50.204;8.844;2022-07-03T13:15:17;99969.47;;;29.18;26.48
72570;BME280;60594;50.204;8.844;2022-07-03T13:17:50;99965.94;;;29.34;30.90
72570;BME280;60594;50.204;8.844;2022-07-03T13:20:16;99972.16;;;29.79;26.40
72570;BME280;60594;50.204;8.844;2022-07-03T13:22:43;99956.16;;;29.76;26.20
72570;BME280;60594;50.204;8.844;2022-07-03T13:25:10;99960.16;;;30.23;25.76
72570;BME280;60594;50.204;8.844;2022-07-03T13:27:36;99959.88;;;30.46;25.64
72570;BME280;60594;50.204;8.844;2022-07-03T13:30:03;99956.00;;;30.68;26.13
72570;BME280;60594;50.204;8.844;2022-07-03T13:32:29;99958.56;;;30.75;25.27
72570;BME280;60594;50.204;8.844;2022-07-03T13:34:56;99948.41;;;30.75;25.81
72570;BME280;60594;50.204;8.844;2022-07-03T13:37:22;99963.50;;;30.73;25.32
72570;BME280;60594;50.204;8.844;2022-07-03T13:39:48;99955.03;;;29.93;25.65
72570;BME280;60594;50.204;8.844;2022-07-03T13:42:14;99957.13;;;29.86;26.20
72570;BME280;60594;50.204;8.844;2022-07-03T13:44:41;99951.63;;;29.86;28.22
72570;BME280;60594;50.204;8.844;2022-07-03T13:47:07;99962.34;;;29.66;26.74
72570;BME280;60594;50.204;8.844;2022-07-03T13:49:33;99958.84;;;29.38;26.77
72570;BME280;60594;50.204;8.844;2022-07-03T13:52:00;99952.28;;;29.22;26.82
72570;BME280;60594;50.204;8.844;2022-07-03T13:54:26;99950.09;;;29.74;27.48
72570;BME280;60594;50.204;8.844;2022-07-03T13:56:52;99942.09;;;30.32;26.44
72570;BME280;60594;50.204;8.844;2022-07-03T13:59:19;99940.09;;;30.49;25.62
72570;BME280;60594;50.204;8.844;2022-07-03T14:01:45;99942.16;;;30.63;25.57
72570;BME280;60594;50.204;8.844;2022-07-03T14:04:11;99945.41;;;30.77;25.45
72570;BME280;60594;50.204;8.844;2022-07-03T14:06:38;99946.84;;;30.84;25.56
72570;BME280;60594;50.204;8.844;2022-07-03T14:09:04;99942.03;;;30.05;25.75
72570;BME280;60594;50.204;8.844;2022-07-03T14:11:30;99942.03;;;30.05;26.45
72570;BME280;60594;50.204;8.844;2022-07-03T14:13:56;99933.19;;;30.25;26.91
72570;BME280;60594;50.204;8.844;2022-07-03T14:16:23;99935.56;;;30.38;27.15
72570;BME280;60594;50.204;8.844;2022-07-03T14:18:49;99934.25;;;30.45;26.12